TimeEST,TemperatureF,Dew PointF,Humidity,Sea Level PressureIn,VisibilityMPH,Wind Direction,Wind SpeedMPH,Gust SpeedMPH,PrecipitationIn,Events,Conditions,WindDirDegrees,DateUTC
12:32 AM,32.0,30.2,93,29.54,6.0,South,3.5,-,0.00,,Overcast,190,2013-02-20 05:32:00
12:54 AM,32.0,30.9,96,29.53,9.0,Calm,Calm,-,0.00,,Overcast,0,2013-02-20 05:54:00
1:21 AM,32.0,30.2,93,29.49,7.0,Calm,Calm,-,N/A,,Overcast,0,2013-02-20 06:21:00
1:54 AM,32.0,30.9,96,29.50,5.0,Calm,Calm,-,0.00,,Overcast,0,2013-02-20 06:54:00
2:05 AM,32.0,30.2,93,29.47,5.0,Calm,Calm,-,0.01,Rain,Light Freezing Rain,0,2013-02-20 07:05:00
2:31 AM,32.0,30.2,93,29.45,9.0,Calm,Calm,-,0.01,Rain,Light Freezing Rain,0,2013-02-20 07:31:00
2:40 AM,33.8,30.2,87,29.46,10.0,Calm,Calm,-,0.01,Rain,Light Freezing Rain,0,2013-02-20 07:40:00
2:47 AM,32.0,30.2,93,29.45,10.0,WSW,4.6,-,0.01,,Overcast,250,2013-02-20 07:47:00
2:54 AM,32.0,30.9,96,29.47,10.0,WSW,3.5,-,0.01,,Overcast,250,2013-02-20 07:54:00
3:16 AM,32.0,30.2,93,29.43,10.0,WSW,3.5,-,0.00,,Overcast,250,2013-02-20 08:16:00
3:54 AM,33.1,32.0,96,29.45,10.0,WSW,5.8,-,0.01,,Overcast,240,2013-02-20 08:54:00
4:06 AM,33.8,32.0,93,29.44,8.0,WSW,9.2,17.3,0.00,Snow,Light Snow,250,2013-02-20 09:06:00
4:54 AM,33.1,30.0,89,29.47,8.0,West,8.1,18.4,0.01,Snow,Light Snow,280,2013-02-20 09:54:00
5:54 AM,32.0,24.1,73,29.49,10.0,West,9.2,-,0.00,,Overcast,280,2013-02-20 10:54:00
7:54 AM,30.9,21.0,67,29.51,10.0,West,9.2,18.4,N/A,,Partly Cloudy,280,2013-02-20 12:54:00
9:54 AM,34.0,19.9,56,29.52,10.0,Variable,6.9,26.5,N/A,,Clear,0,2013-02-20 14:54:00
10:54 AM,34.0,17.1,50,29.53,10.0,West,9.2,25.3,N/A,,Mostly Cloudy,270,2013-02-20 15:54:00
11:54 AM,33.1,17.1,52,29.53,10.0,West,11.5,26.5,N/A,,Overcast,280,2013-02-20 16:54:00
12:54 PM,34.0,15.1,46,29.52,10.0,West,11.5,26.5,N/A,,Overcast,280,2013-02-20 17:54:00
1:54 PM,33.1,14.0,46,29.52,10.0,WNW,16.1,26.5,0.00,,Overcast,290,2013-02-20 18:54:00
2:54 PM,30.9,14.0,50,29.52,10.0,West,8.1,25.3,N/A,,Overcast,270,2013-02-20 19:54:00
3:54 PM,30.9,12.9,47,29.54,10.0,West,15.0,27.6,N/A,,Overcast,280,2013-02-20 20:54:00
4:54 PM,30.0,15.1,54,29.56,10.0,West,9.2,16.1,N/A,,Overcast,280,2013-02-20 21:54:00
5:54 PM,28.9,15.1,56,29.58,10.0,West,8.1,-,N/A,,Overcast,280,2013-02-20 22:54:00
6:54 PM,28.0,14.0,56,29.60,10.0,West,8.1,-,N/A,,Overcast,270,2013-02-20 23:54:00
7:54 PM,28.0,12.0,51,29.60,10.0,West,15.0,23.0,N/A,,Scattered Clouds,280,2013-02-21 00:54:00
8:54 PM,28.0,12.0,51,29.63,10.0,NW,8.1,-,N/A,,Partly Cloudy,320,2013-02-21 01:54:00
9:54 PM,27.0,12.0,53,29.64,10.0,Variable,6.9,-,N/A,,Partly Cloudy,0,2013-02-21 02:54:00
10:54 PM,28.0,10.9,49,29.65,10.0,WNW,13.8,27.6,N/A,,Clear,290,2013-02-21 03:54:00
11:54 PM,27.0,10.9,51,29.64,10.0,West,17.3,27.6,N/A,,Clear,270,2013-02-21 04:54:00